Time;durP1;ratioP1;P1;durP2;ratioP2;P2;SDS_P1;SDS_P2;PMS_P1;PMS_P2;Temp;Humidity;BMP_temperature;BMP_pressure;BME280_temperature;BME280_humidity;BME280_pressure;Samples;Min_cycle;Max_cycle;Signal;HPM_P1;HPM_P2
2022/08/19 00:02:24;;;;;;;;;12.75;12.75;;;;;23.39;54.54;101174.03;5109577;27;45306;-63
2022/08/19 00:04:52;;;;;;;;;13.75;12.50;;;;;23.38;54.29;101175.91;5121654;27;45375;-63
2022/08/19 00:07:18;;;;;;;;;11.75;11.00;;;;;23.34;54.31;101162.63;5122927;27;45519;-63
2022/08/19 00:09:44;;;;;;;;;10.25;10.25;;;;;23.36;54.31;101172.44;5120026;27;45317;-63
2022/08/19 00:12:10;;;;;;;;;13.50;11.50;;;;;23.35;54.38;101167.13;5104466;27;45454;-63
2022/08/19 00:14:37;;;;;;;;;10.25;10.25;;;;;23.34;54.66;101178.97;5121261;27;45266;-63
2022/08/19 00:17:04;;;;;;;;;13.00;11.00;;;;;23.32;54.50;101176.38;5109351;27;45660;-63
2022/08/19 00:19:30;;;;;;;;;9.75;8.75;;;;;23.33;54.63;101177.28;5117855;27;46990;-63
2022/08/19 00:21:56;;;;;;;;;9.25;9.25;;;;;23.27;54.45;101182.22;5122566;27;45420;-63
2022/08/19 00:24:22;;;;;;;;;11.25;11.00;;;;;23.24;54.84;101170.69;5122595;27;45333;-62
2022/08/19 00:26:48;;;;;;;;;8.00;7.00;;;;;23.25;54.62;101178.72;5124348;27;45570;-63
2022/08/19 00:29:17;;;;;;;;;10.25;10.25;;;;;23.23;54.33;101177.97;5123185;27;46181;-63
2022/08/19 00:31:44;;;;;;;;;10.00;8.25;;;;;23.21;54.51;101182.69;5123957;27;45334;-63
2022/08/19 00:34:11;;;;;;;;;9.75;9.75;;;;;23.17;54.67;101174.88;5124194;27;45350;-63
2022/08/19 00:36:37;;;;;;;;;8.25;8.25;;;;;23.10;54.58;101172.66;5123837;27;45504;-63
2022/08/19 00:39:03;;;;;;;;;8.00;8.00;;;;;23.18;54.58;101184.78;5122436;27;45391;-63
2022/08/19 00:41:29;;;;;;;;;10.25;8.75;;;;;23.17;54.64;101173.03;5123195;27;45369;-62
2022/08/19 00:44:04;;;;;;;;;11.00;9.25;;;;;23.18;54.57;101185.66;5123993;27;45321;-62
2022/08/19 00:46:30;;;;;;;;;9.25;9.00;;;;;23.15;54.51;101187.75;5114686;27;45546;-63
2022/08/19 00:48:57;;;;;;;;;8.50;8.00;;;;;23.08;54.31;101176.47;5123599;27;45250;-63
2022/08/19 00:51:26;;;;;;;;;8.00;7.00;;;;;23.09;54.18;101179.09;5122513;27;45392;-63
2022/08/19 00:53:52;;;;;;;;;7.25;6.00;;;;;23.08;54.44;101190.09;5105133;27;45351;-63
2022/08/19 00:56:18;;;;;;;;;9.75;8.50;;;;;23.02;54.85;101176.91;5121834;27;45409;-62
2022/08/19 00:58:43;;;;;;;;;9.00;9.00;;;;;23.05;54.62;101173.97;5123267;27;46141;-63
2022/08/19 01:01:09;;;;;;;;;10.00;8.75;;;;;23.03;54.60;101184.97;5121473;27;45293;-62
2022/08/19 01:03:34;;;;;;;;;7.75;7.75;;;;;22.98;55.03;101170.84;5123197;27;45914;-63
2022/08/19 01:06:00;;;;;;;;;8.00;6.25;;;;;22.93;54.98;101167.63;5123541;27;45348;-62
2022/08/19 01:08:25;;;;;;;;;8.50;8.50;;;;;22.92;54.81;101168.59;5123229;27;45693;-63
2022/08/19 01:10:54;;;;;;;;;8.50;8.50;;;;;22.93;55.12;101171.19;5122570;27;45413;-62
2022/08/19 01:13:24;;;;;;;;;10.00;8.25;;;;;22.98;55.00;101180.88;5123423;27;45324;-62
2022/08/19 01:15:57;;;;;;;;;8.25;8.25;;;;;22.97;54.89;101170.97;5122225;27;45464;-62
2022/08/19 01:18:24;;;;;;;;;7.25;7.00;;;;;22.94;55.11;101172.94;5113102;27;46190;-62
2022/08/19 01:20:51;;;;;;;;;9.00;9.00;;;;;22.91;54.88;101169.59;5115318;27;45440;-62
2022/08/19 01:23:17;;;;;;;;;9.00;8.75;;;;;22.93;55.15;101173.91;5116745;27;45347;-63
2022/08/19 01:25:50;;;;;;;;;12.00;10.00;;;;;22.90;54.82;101182.34;5123272;27;45389;-63
2022/08/19 01:28:27;;;;;;;;;11.25;9.25;;;;;22.88;55.20;101181.56;5105296;27;45266;-62
2022/08/19 01:30:54;;;;;;;;;8.00;7.50;;;;;22.80;54.95;101169.56;5121393;27;46064;-63
2022/08/19 01:33:21;;;;;;;;;7.75;7.75;;;;;22.85;55.21;101184.53;5123333;27;45354;-63
2022/08/19 01:35:50;;;;;;;;;12.25;11.25;;;;;22.75;55.19;101167.19;5122734;27;45414;-63
2022/08/19 01:38:26;;;;;;;;;8.25;7.50;;;;;22.81;55.48;101179.47;5121755;27;45890;-63
2022/08/19 01:40:52;;;;;;;;;9.00;9.00;;;;;22.77;55.20;101178.84;5119783;27;45432;-63
2022/08/19 01:43:19;;;;;;;;;9.50;9.50;;;;;22.74;55.31;101173.63;5123236;27;45503;-62
2022/08/19 01:45:45;;;;;;;;;9.25;9.25;;;;;22.74;55.26;101174.50;5121768;27;45525;-63
2022/08/19 01:48:11;;;;;;;;;8.00;8.00;;;;;22.76;55.44;101177.94;5123107;27;46334;-63
2022/08/19 01:50:37;;;;;;;;;9.25;9.25;;;;;22.74;55.52;101177.22;5115174;27;45423;-63
2022/08/19 01:53:06;;;;;;;;;10.50;10.50;;;;;22.75;55.22;101189.84;5112623;27;45468;-62
2022/08/19 01:55:31;;;;;;;;;10.25;10.00;;;;;22.72;55.26;101181.03;5122422;27;45185;-63
2022/08/19 01:57:59;;;;;;;;;12.00;11.25;;;;;22.71;54.93;101177.44;5122686;27;46138;-63
2022/08/19 02:00:29;;;;;;;;;10.00;8.00;;;;;22.77;55.48;101189.72;5120154;27;45431;-62
2022/08/19 02:02:54;;;;;;;;;10.50;7.25;;;;;22.75;55.58;101191.69;5122922;27;45519;-63
2022/08/19 02:05:21;;;;;;;;;11.25;10.50;;;;;22.73;54.99;101189.06;5122729;27;45153;-63
2022/08/19 02:07:47;;;;;;;;;9.00;8.75;;;;;22.71;55.24;101185.59;5120611;27;45252;-62
2022/08/19 02:10:17;;;;;;;;;9.50;9.50;;;;;22.68;55.41;101184.97;5118414;27;45326;-63
2022/08/19 02:12:42;;;;;;;;;11.25;11.00;;;;;22.67;55.41;101185.94;5122425;27;45252;-62
2022/08/19 02:15:08;;;;;;;;;13.00;13.00;;;;;22.69;55.72;101186.72;5122271;27;45345;-63
2022/08/19 02:17:33;;;;;;;;;9.00;9.00;;;;;22.69;55.35;101187.59;5109101;27;46351;-62
2022/08/19 02:20:00;;;;;;;;;11.75;11.75;;;;;22.66;55.46;101179.66;5100146;27;45414;-63
2022/08/19 02:22:25;;;;;;;;;11.50;11.50;;;;;22.64;55.43;101186.22;5122559;27;45297;-63
2022/08/19 02:24:55;;;;;;;;;14.25;12.75;;;;;22.64;55.37;101181.63;5116166;27;45221;-63
2022/08/19 02:27:21;;;;;;;;;12.25;12.25;;;;;22.60;55.55;101187.41;5101825;27;48375;-62
2022/08/19 02:29:48;;;;;;;;;13.25;12.75;;;;;22.62;56.02;101185.44;5120925;27;45380;-63
2022/08/19 02:32:13;;;;;;;;;12.75;12.75;;;;;22.60;56.20;101196.44;5122285;27;45303;-62
2022/08/19 02:34:39;;;;;;;;;11.75;10.75;;;;;22.55;55.60;101202.25;5122264;27;45404;-62
2022/08/19 02:37:05;;;;;;;;;12.75;10.75;;;;;22.54;55.87;101205.09;5121699;27;45394;-63
2022/08/19 02:39:30;;;;;;;;;13.75;13.75;;;;;22.58;55.70;101198.41;5116301;27;45326;-63
2022/08/19 02:41:57;;;;;;;;;14.25;14.25;;;;;22.57;55.95;101196.69;5120074;27;45230;-62
2022/08/19 02:44:23;;;;;;;;;13.25;12.00;;;;;22.53;56.16;101187.00;5120221;27;45384;-62
2022/08/19 02:46:49;;;;;;;;;14.50;12.50;;;;;22.53;56.50;101196.03;5121190;27;46090;-62
2022/08/19 02:49:16;;;;;;;;;12.25;12.25;;;;;22.52;56.07;101194.31;5101967;27;45324;-62
2022/08/19 02:51:43;;;;;;;;;11.50;10.75;;;;;22.51;56.26;101187.13;5107540;27;45718;-62
2022/08/19 02:54:10;;;;;;;;;10.25;10.25;;;;;22.54;55.90;101194.19;5099657;27;45518;-63
2022/08/19 02:56:38;;;;;;;;;14.00;11.00;;;;;22.53;56.35;101190.59;5100988;27;45271;-62
2022/08/19 02:59:09;;;;;;;;;14.00;12.00;;;;;22.44;56.25;101177.69;5106805;27;47100;-63
2022/08/19 03:01:35;;;;;;;;;13.75;11.50;;;;;22.52;56.52;101198.88;5119665;27;45255;-63
2022/08/19 03:04:03;;;;;;;;;13.75;11.00;;;;;22.53;56.32;101197.91;5120774;27;45259;-63
2022/08/19 03:06:29;;;;;;;;;9.50;8.75;;;;;22.46;56.66;101189.31;5106345;27;46090;-62
2022/08/19 03:08:55;;;;;;;;;10.50;10.50;;;;;22.47;56.33;101191.06;5101054;27;45384;-63
2022/08/19 03:11:31;;;;;;;;;11.50;11.50;;;;;22.54;56.47;101196.91;5116385;27;45325;-62
2022/08/19 03:13:59;;;;;;;;;12.25;12.00;;;;;22.52;56.28;101199.75;5121093;27;45377;-63
2022/08/19 03:16:40;;;;;;;;;11.00;10.00;;;;;22.54;56.71;101191.47;5117394;27;45425;-62
2022/08/19 03:19:06;;;;;;;;;10.50;9.25;;;;;22.49;56.38;101189.09;5120801;27;45532;-63
2022/08/19 03:21:33;;;;;;;;;11.75;11.75;;;;;22.52;56.94;101191.59;5102644;27;45353;-63
2022/08/19 03:24:02;;;;;;;;;9.50;9.00;;;;;22.53;56.64;101190.59;5114612;27;45445;-63
2022/08/19 03:26:29;;;;;;;;;11.00;11.00;;;;;22.55;57.28;101202.25;5115902;27;46289;-63
2022/08/19 03:28:55;;;;;;;;;10.00;10.00;;;;;22.51;57.58;101198.00;5121225;27;45326;-63
2022/08/19 03:31:24;;;;;;;;;12.25;10.00;;;;;22.48;57.68;101197.38;5121146;27;45293;-62
2022/08/19 03:33:51;;;;;;;;;11.75;10.50;;;;;22.44;57.38;101188.59;5097888;27;45499;-62
2022/08/19 03:36:20;;;;;;;;;10.25;9.75;;;;;22.41;57.76;101180.66;5116882;27;47716;-63
2022/08/19 03:38:48;;;;;;;;;9.75;9.75;;;;;22.39;57.57;101183.47;5120179;27;45467;-63
2022/08/19 03:41:25;;;;;;;;;10.00;9.25;;;;;22.36;57.60;101186.44;5106791;27;45407;-62
2022/08/19 03:43:52;;;;;;;;;12.00;12.00;;;;;22.33;57.68;101192.09;5121080;27;45310;-63
2022/08/19 03:46:21;;;;;;;;;10.25;8.50;;;;;22.30;57.46;101196.91;5100023;27;47035;-62
2022/08/19 03:48:48;;;;;;;;;9.25;7.00;;;;;22.22;58.05;101192.03;5120949;27;45504;-62
2022/08/19 03:51:20;;;;;;;;;7.50;6.25;;;;;22.27;57.14;101192.53;5119645;27;45308;-62
2022/08/19 03:53:46;;;;;;;;;9.00;7.00;;;;;22.27;57.42;101192.53;5120931;27;45389;-62
2022/08/19 03:56:12;;;;;;;;;7.00;7.00;;;;;22.29;57.95;101192.47;5119849;27;45551;-62
2022/08/19 03:58:38;;;;;;;;;10.75;8.00;;;;;22.26;57.51;101179.06;5120882;27;45256;-63
2022/08/19 04:01:08;;;;;;;;;5.50;5.50;;;;;22.34;57.53;101190.25;5121024;27;45233;-62
2022/08/19 04:03:35;;;;;;;;;9.00;7.25;;;;;22.31;57.45;101185.06;5120715;27;45537;-63
2022/08/19 04:06:10;;;;;;;;;8.50;8.00;;;;;22.36;57.02;101188.28;5113047;27;46440;-62
2022/08/19 04:08:36;;;;;;;;;10.75;10.00;;;;;22.39;57.32;101197.09;5114375;27;45494;-63
2022/08/19 04:11:01;;;;;;;;;7.00;7.00;;;;;22.38;57.65;101189.91;5112732;27;45371;-62
2022/08/19 04:13:27;;;;;;;;;12.50;9.75;;;;;22.39;57.09;101190.78;5120401;27;45513;-62
2022/08/19 04:15:53;;;;;;;;;6.50;6.25;;;;;22.39;57.44;101183.47;5119389;27;45382;-62
2022/08/19 04:18:18;;;;;;;;;9.00;8.00;;;;;22.41;57.16;101182.50;5106287;27;50070;-62
2022/08/19 04:20:46;;;;;;;;;9.00;8.00;;;;;22.43;57.27;101188.69;5120686;27;45301;-63
2022/08/19 04:23:13;;;;;;;;;6.25;6.00;;;;;22.39;57.53;101171.75;5114744;27;48458;-62
2022/08/19 04:25:44;;;;;;;;;8.00;8.00;;;;;22.39;57.05;101180.75;5119462;27;46126;-62
2022/08/19 04:28:12;;;;;;;;;8.50;6.25;;;;;22.39;57.02;101178.03;5120409;27;45310;-63
2022/08/19 04:30:42;;;;;;;;;8.00;6.50;;;;;22.46;57.29;101194.78;5120542;27;45381;-63
2022/08/19 04:33:09;;;;;;;;;6.75;6.75;;;;;22.46;57.36;101194.78;5107713;27;45305;-63
2022/08/19 04:35:40;;;;;;;;;5.50;5.50;;;;;22.43;57.35;101188.69;5119314;27;45397;-62
2022/08/19 04:38:06;;;;;;;;;9.00;6.25;;;;;22.41;57.54;101188.81;5119915;27;45393;-62
2022/08/19 04:43:16;;;;;;;;;5.25;5.25;;;;;22.47;56.89;101199.25;5099934;27;45409;-63
2022/08/19 04:45:45;;;;;;;;;8.00;6.25;;;;;22.47;57.10;101190.19;5114889;27;45428;-63
2022/08/19 04:48:12;;;;;;;;;5.50;5.50;;;;;22.49;57.23;101199.97;5108716;27;45394;-62
2022/08/19 04:50:42;;;;;;;;;2.00;2.00;;;;;22.49;57.24;101204.56;5118877;27;45187;-62
2022/08/19 04:53:09;;;;;;;;;6.25;4.50;;;;;22.52;56.92;101210.63;5124058;27;45255;-63
2022/08/19 04:55:35;;;;;;;;;3.75;3.75;;;;;22.52;57.21;101212.47;5120996;27;46456;-62
2022/08/19 04:58:02;;;;;;;;;3.50;3.00;;;;;22.47;57.35;101207.41;5123801;27;45172;-62
2022/08/19 05:00:27;;;;;;;;;5.00;5.00;;;;;22.45;57.20;101209.34;5123652;27;45333;-62
2022/08/19 05:02:53;;;;;;;;;5.00;4.50;;;;;22.51;57.72;101217.06;5122183;27;45161;-62
2022/08/19 05:05:19;;;;;;;;;6.00;4.00;;;;;22.52;57.24;101223.34;5123215;27;45546;-63
2022/08/19 05:07:45;;;;;;;;;5.25;5.25;;;;;22.49;57.26;101221.75;5122941;27;45505;-62
2022/08/19 05:10:11;;;;;;;;;4.00;4.00;;;;;22.55;57.49;101226.72;5122763;27;45253;-63
2022/08/19 05:12:36;;;;;;;;;4.00;3.00;;;;;22.54;57.50;101224.97;5119256;27;45580;-62
2022/08/19 05:15:05;;;;;;;;;3.50;3.50;;;;;22.55;58.03;101224.00;5109362;27;46080;-63
2022/08/19 05:17:31;;;;;;;;;7.25;5.00;;;;;22.47;57.33;101209.22;5110685;27;47090;-62
2022/08/19 05:22:43;;;;;;;;;6.00;6.00;;;;;22.49;57.70;101215.44;5121849;27;45425;-62
2022/08/19 05:25:12;;;;;;;;;5.00;4.50;;;;;22.51;57.28;101229.78;5114084;27;45359;-62
2022/08/19 05:27:38;;;;;;;;;4.25;4.25;;;;;22.50;57.47;101230.75;5117484;27;45251;-62
2022/08/19 05:30:05;;;;;;;;;5.00;5.00;;;;;22.53;57.86;101239.56;5121692;27;45488;-62
2022/08/19 05:32:30;;;;;;;;;4.25;4.00;;;;;22.49;58.08;101231.75;5123114;27;45223;-63
2022/08/19 05:34:56;;;;;;;;;5.00;5.00;;;;;22.53;57.38;101244.13;5121878;27;45519;-63
2022/08/19 05:37:22;;;;;;;;;3.75;3.75;;;;;22.49;57.76;101231.75;5103172;27;45286;-62
2022/08/19 05:39:48;;;;;;;;;4.00;4.00;;;;;22.49;57.59;101227.19;5116846;27;45539;-62
2022/08/19 05:42:14;;;;;;;;;5.00;5.00;;;;;22.55;57.73;101237.63;5120058;27;45339;-62
2022/08/19 05:44:44;;;;;;;;;4.75;4.75;;;;;22.54;58.05;101240.44;5119253;27;46289;-62
2022/08/19 05:47:12;;;;;;;;;4.00;4.00;;;;;22.53;57.99;101235.97;5109237;27;45668;-62
2022/08/19 05:49:38;;;;;;;;;5.00;5.00;;;;;22.52;58.28;101237.84;5121644;27;45424;-62
2022/08/19 05:52:09;;;;;;;;;3.50;3.25;;;;;22.53;58.23;101238.69;5122648;27;45566;-62
2022/08/19 05:54:35;;;;;;;;;3.75;3.75;;;;;22.48;58.03;101233.59;5102541;27;46984;-63
2022/08/19 05:57:02;;;;;;;;;5.00;5.00;;;;;22.50;58.40;101236.19;5122740;27;45720;-62
2022/08/19 05:59:28;;;;;;;;;4.25;3.25;;;;;22.45;58.61;101235.69;5120698;27;45429;-62
2022/08/19 06:01:55;;;;;;;;;4.25;4.25;;;;;22.18;58.30;101204.94;5120483;27;45443;-62
2022/08/19 06:04:21;;;;;;;;;5.75;5.00;;;;;22.41;58.69;101245.94;5119919;27;47196;-62
2022/08/19 06:06:50;;;;;;;;;2.25;2.25;;;;;22.39;59.05;101254.19;5121144;27;45518;-62
2022/08/19 06:09:15;;;;;;;;;4.00;4.00;;;;;22.37;58.36;101249.88;5115678;27;45241;-63
2022/08/19 06:11:44;;;;;;;;;4.50;4.00;;;;;22.35;58.62;101247.25;5118227;27;45302;-62
2022/08/19 06:14:16;;;;;;;;;4.00;3.75;;;;;22.35;58.42;101235.50;5114450;27;45421;-63
2022/08/19 06:16:42;;;;;;;;;3.00;3.00;;;;;22.44;58.91;101258.44;5115387;27;45573;-62
2022/08/19 06:19:13;;;;;;;;;2.00;2.00;;;;;22.33;58.55;101251.91;5108433;27;45223;-62
2022/08/19 06:21:42;;;;;;;;;3.25;3.00;;;;;22.32;58.77;101255.66;5121268;27;45265;-62
2022/08/19 06:24:11;;;;;;;;;1.75;1.75;;;;;22.31;59.69;101266.63;5114077;27;45372;-62
2022/08/19 06:26:39;;;;;;;;;2.75;1.25;;;;;22.26;59.25;101268.78;5090449;27;45494;-67
2022/08/19 06:29:06;;;;;;;;;3.50;2.50;;;;;22.27;59.21;101265.97;5113185;27;45708;-67
2022/08/19 06:31:34;;;;;;;;;2.75;2.00;;;;;22.30;59.93;101273.03;5116941;27;45259;-68
2022/08/19 06:34:04;;;;;;;;;3.75;2.00;;;;;22.26;59.28;101266.94;5119948;27;45976;-69
2022/08/19 06:36:40;;;;;;;;;4.00;3.75;;;;;22.28;59.48;101264.09;5120617;27;45257;-68
2022/08/19 06:39:11;;;;;;;;;2.50;2.00;;;;;22.26;59.65;101261.50;5093169;27;45386;-68
2022/08/19 06:41:40;;;;;;;;;4.00;2.00;;;;;22.33;59.36;101279.13;5120991;27;45472;-68
2022/08/19 06:44:06;;;;;;;;;4.25;2.00;;;;;22.33;59.81;101289.13;5121556;27;45368;-69
2022/08/19 06:46:32;;;;;;;;;0.50;0.50;;;;;22.25;59.92;101276.06;5102026;27;45413;-69
2022/08/19 06:48:58;;;;;;;;;2.50;2.50;;;;;22.26;59.46;101271.50;5118602;27;45691;-68
2022/08/19 06:51:24;;;;;;;;;2.25;2.25;;;;;22.27;59.48;101276.84;5115677;27;45360;-69
2022/08/19 06:53:52;;;;;;;;;3.75;2.25;;;;;22.26;59.61;101279.66;5121580;27;45554;-69
2022/08/19 06:56:25;;;;;;;;;2.50;2.00;;;;;22.24;59.83;101270.75;5117531;27;45342;-68
2022/08/19 06:58:52;;;;;;;;;2.00;2.00;;;;;22.20;59.99;101275.53;5115085;27;45487;-68
2022/08/19 07:01:19;;;;;;;;;1.00;1.00;;;;;22.23;59.73;101285.31;5113963;27;45461;-66
2022/08/19 07:03:46;;;;;;;;;1.00;1.00;;;;;22.18;59.86;101272.91;5109667;27;47922;-69
2022/08/19 07:06:15;;;;;;;;;2.00;2.00;;;;;22.26;59.86;101287.81;5115336;27;45606;-67
2022/08/19 07:08:42;;;;;;;;;2.00;2.00;;;;;22.29;60.01;101296.66;5108605;27;45315;-67
2022/08/19 07:11:09;;;;;;;;;1.25;1.25;;;;;22.28;59.91;101283.13;5109065;27;45478;-66
2022/08/19 07:13:36;;;;;;;;;2.00;2.00;;;;;22.28;59.72;101291.28;5106907;27;45674;-66
2022/08/19 07:16:10;;;;;;;;;2.00;2.00;;;;;22.28;59.58;101289.47;5106986;27;45425;-66
2022/08/19 07:18:35;;;;;;;;;1.00;1.00;;;;;22.27;59.78;101289.53;5105481;27;46662;-66
2022/08/19 07:21:11;;;;;;;;;0.75;0.50;;;;;22.32;60.00;101295.53;5103729;27;46628;-66
2022/08/19 07:23:36;;;;;;;;;3.00;2.00;;;;;22.32;59.67;101295.53;5108485;27;45322;-66
2022/08/19 07:26:11;;;;;;;;;3.00;3.00;;;;;22.36;59.81;101302.53;5120606;27;45444;-67
2022/08/19 07:28:38;;;;;;;;;2.00;2.00;;;;;22.30;59.69;101292.97;5119443;27;45664;-66
2022/08/19 07:31:07;;;;;;;;;2.25;2.25;;;;;22.29;59.98;101285.78;5120307;27;45477;-66
2022/08/19 07:33:36;;;;;;;;;3.50;2.25;;;;;22.30;60.02;101282.09;5120511;27;45444;-66
2022/08/19 07:36:06;;;;;;;;;2.25;2.00;;;;;22.37;60.42;101288.81;5116141;27;45441;-66
2022/08/19 07:38:32;;;;;;;;;2.00;1.75;;;;;22.40;60.27;101293.13;5113201;27;45491;-66
2022/08/19 07:40:57;;;;;;;;;2.00;2.00;;;;;22.43;59.73;101294.78;5120334;27;45407;-66
2022/08/19 07:43:24;;;;;;;;;1.75;1.75;;;;;22.43;59.75;101289.34;5120495;27;46108;-66
2022/08/19 07:45:52;;;;;;;;;1.50;1.50;;;;;22.42;59.99;101293.03;5120236;27;45402;-66
2022/08/19 07:48:18;;;;;;;;;1.00;1.00;;;;;22.45;60.31;101298.25;5107556;27;45506;-66
2022/08/19 07:50:43;;;;;;;;;1.75;1.75;;;;;22.46;59.76;101289.13;5117824;27;45345;-66
2022/08/19 07:53:09;;;;;;;;;1.50;1.50;;;;;22.47;59.77;101299.88;5101220;27;47293;-63
2022/08/19 07:55:34;;;;;;;;;1.00;1.00;;;;;22.49;59.97;101295.19;5116727;27;45375;-63
2022/08/19 07:57:59;;;;;;;;;3.00;2.00;;;;;22.48;60.30;101293.44;5116611;27;45468;-63
2022/08/19 08:00:26;;;;;;;;;2.00;2.00;;;;;22.48;59.69;101298.03;5118294;27;45389;-63
2022/08/19 08:02:53;;;;;;;;;2.00;2.00;;;;;22.48;60.07;101289.88;5119561;27;45271;-63
2022/08/19 08:10:46;;;;;;;;;2.00;2.00;;;;;22.48;60.42;101293.44;5111260;27;45479;-63
2022/08/19 08:13:11;;;;;;;;;1.00;1.00;;;;;22.49;60.27;101289.75;5115014;27;45493;-63
2022/08/19 08:15:38;;;;;;;;;2.00;1.00;;;;;22.51;59.74;101301.38;5119399;27;45396;-64
2022/08/19 08:18:04;;;;;;;;;1.25;1.25;;;;;22.52;59.95;101305.84;5118987;27;45797;-64
2022/08/19 08:20:29;;;;;;;;;4.50;2.00;;;;;22.52;60.64;101311.28;5119070;27;45730;-64
2022/08/19 08:25:39;;;;;;;;;1.00;1.00;;;;;22.54;60.26;101301.16;5099539;27;45548;-64
2022/08/19 08:28:05;;;;;;;;;1.25;1.25;;;;;22.58;60.22;101315.41;5117261;27;45381;-63
2022/08/19 08:30:32;;;;;;;;;0.00;0.00;;;;;22.58;60.40;101313.53;5122997;27;45388;-62
2022/08/19 08:32:58;;;;;;;;;1.00;1.00;;;;;22.56;60.41;101315.50;5123076;27;45977;-63
2022/08/19 08:35:24;;;;;;;;;1.00;1.00;;;;;22.56;60.20;101312.78;5123810;27;45373;-64
2022/08/19 08:37:52;;;;;;;;;1.25;1.25;;;;;22.63;60.38;101317.78;5107221;27;45361;-63
2022/08/19 08:40:28;;;;;;;;;1.25;1.25;;;;;22.55;60.37;101305.63;5111705;27;45645;-63
2022/08/19 08:43:05;;;;;;;;;0.25;0.25;;;;;22.63;60.22;101318.66;5120582;27;45458;-63
2022/08/19 08:45:34;;;;;;;;;0.50;0.00;;;;;22.61;59.82;101308.88;5122341;27;45295;-63
2022/08/19 08:48:11;;;;;;;;;1.00;1.00;;;;;22.60;60.19;101312.56;5122373;27;45587;-63
2022/08/19 08:50:44;;;;;;;;;2.00;2.00;;;;;22.63;60.78;101312.34;5122965;27;45260;-63
2022/08/19 08:53:17;;;;;;;;;2.00;2.00;;;;;22.64;60.69;101325.84;5122451;27;45386;-63
2022/08/19 08:55:44;;;;;;;;;1.25;1.25;;;;;22.65;60.33;101322.13;5114464;27;45491;-63
2022/08/19 08:58:15;;;;;;;;;2.00;2.00;;;;;22.68;60.31;101321.03;5117758;27;45517;-63
2022/08/19 09:00:45;;;;;;;;;1.75;1.75;;;;;22.69;60.51;101314.63;5122575;27;45374;-63
2022/08/19 09:03:19;;;;;;;;;1.50;1.50;;;;;22.68;60.26;101308.28;5120011;27;46235;-63
2022/08/19 09:06:11;;;;;;;;;2.75;2.00;;;;;22.68;60.62;101308.28;5122361;27;45425;-63
2022/08/19 09:08:45;;;;;;;;;2.00;2.00;;;;;22.71;60.75;101324.38;5111224;27;45437;-63
2022/08/19 09:11:21;;;;;;;;;2.00;2.00;;;;;22.70;60.99;101319.94;5122709;27;45476;-63
2022/08/19 09:14:08;;;;;;;;;2.00;2.00;;;;;22.73;60.79;101318.84;5113445;27;45439;-63
2022/08/19 09:16:34;;;;;;;;;1.50;1.50;;;;;22.72;60.46;101311.63;5120490;27;45378;-63
2022/08/19 09:19:05;;;;;;;;;3.50;2.00;;;;;22.76;60.51;101303.13;5121648;27;45522;-63
2022/08/19 09:21:30;;;;;;;;;3.00;3.00;;;;;22.79;60.69;101306.59;5121989;27;45749;-63
2022/08/19 09:23:58;;;;;;;;;3.00;2.50;;;;;22.77;60.62;101306.75;5122390;27;46028;-63
2022/08/19 09:26:24;;;;;;;;;2.00;2.00;;;;;22.76;60.50;101296.84;5122431;27;45156;-63
2022/08/19 09:28:52;;;;;;;;;2.00;2.00;;;;;22.84;60.43;101318.91;5122071;27;45440;-63
2022/08/19 09:31:23;;;;;;;;;2.00;2.00;;;;;22.87;60.38;101313.22;5121735;27;45505;-63
2022/08/19 09:33:50;;;;;;;;;1.50;1.50;;;;;22.87;60.45;101309.63;5122675;27;46238;-63
2022/08/19 09:36:18;;;;;;;;;3.00;3.00;;;;;22.88;60.68;101309.50;5115141;27;45345;-63
2022/08/19 09:38:44;;;;;;;;;2.00;2.00;;;;;22.85;60.22;101304.28;5118767;27;45483;-63
2022/08/19 09:41:16;;;;;;;;;2.00;2.00;;;;;22.87;60.17;101299.63;5122246;27;45246;-63
2022/08/19 09:43:45;;;;;;;;;2.75;2.25;;;;;22.91;60.28;101303.84;5104150;27;45495;-63
2022/08/19 09:46:11;;;;;;;;;1.00;1.00;;;;;22.94;60.72;101303.63;5121463;27;45618;-63
2022/08/19 09:48:38;;;;;;;;;2.00;2.00;;;;;22.94;60.20;101303.63;5121945;27;45436;-63
2022/08/19 09:51:15;;;;;;;;;2.00;2.00;;;;;22.95;60.77;101301.75;5103420;27;45657;-63
2022/08/19 09:53:42;;;;;;;;;1.00;1.00;;;;;22.96;60.70;101298.06;5109185;27;45527;-63
2022/08/19 09:56:07;;;;;;;;;2.00;2.00;;;;;22.96;60.92;101308.94;5103063;27;45351;-63
2022/08/19 09:58:34;;;;;;;;;2.00;2.00;;;;;22.96;60.85;101308.94;5118400;27;45397;-63
2022/08/19 10:01:01;;;;;;;;;2.50;2.50;;;;;22.97;60.90;101301.63;5095689;27;45560;-63
2022/08/19 10:03:29;;;;;;;;;1.25;1.25;;;;;22.98;60.75;101311.56;5114736;27;45647;-63
2022/08/19 10:05:55;;;;;;;;;3.00;3.00;;;;;22.94;60.85;101298.16;5092571;27;45922;-63
2022/08/19 10:08:36;;;;;;;;;2.00;2.00;;;;;22.97;60.70;101305.25;5121445;27;45384;-63
2022/08/19 10:11:04;;;;;;;;;2.00;2.00;;;;;22.99;60.42;101296.94;5103397;27;45497;-63
2022/08/19 10:13:31;;;;;;;;;2.25;1.00;;;;;23.05;60.41;101300.06;5112547;27;46236;-63
2022/08/19 10:16:07;;;;;;;;;2.50;2.50;;;;;23.09;60.27;101301.59;5120280;27;45565;-63
2022/08/19 10:18:34;;;;;;;;;2.00;2.00;;;;;23.11;60.25;101298.78;5122596;27;45263;-64
2022/08/19 10:21:27;;;;;;;;;2.00;2.00;;;;;23.19;60.14;101299.06;5121028;27;45768;-63
2022/08/19 10:23:57;;;;;;;;;3.00;2.00;;;;;23.21;60.45;101305.25;5117832;27;45391;-63
2022/08/19 10:26:26;;;;;;;;;3.25;2.25;;;;;23.23;59.93;101303.25;5116987;27;45464;-63
2022/08/19 10:28:51;;;;;;;;;3.00;3.00;;;;;23.24;60.63;101302.28;5121900;27;45448;-63
2022/08/19 10:31:21;;;;;;;;;3.00;1.00;;;;;23.25;60.15;101304.00;5119992;27;45448;-62
2022/08/19 10:33:47;;;;;;;;;2.25;2.00;;;;;23.28;60.18;101295.59;5122028;27;47060;-63
2022/08/19 10:36:22;;;;;;;;;1.75;1.75;;;;;23.29;60.32;101296.50;5115154;27;45732;-63
2022/08/19 10:38:50;;;;;;;;;2.00;2.00;;;;;23.30;60.31;101301.81;5117736;27;45452;-63
2022/08/19 10:41:22;;;;;;;;;2.00;2.00;;;;;23.25;60.26;101289.53;5098578;27;45473;-62
2022/08/19 10:43:52;;;;;;;;;5.00;3.50;;;;;23.30;59.59;101293.66;5121890;27;46148;-62
2022/08/19 10:46:18;;;;;;;;;3.25;3.00;;;;;23.29;59.69;101289.19;5121217;27;45412;-63
2022/08/19 10:48:43;;;;;;;;;2.00;2.00;;;;;23.29;59.83;101285.59;5121171;27;45400;-62
2022/08/19 10:53:55;;;;;;;;;1.75;1.75;;;;;23.34;60.09;101287.94;5109715;27;45491;-62
2022/08/19 10:59:04;;;;;;;;;3.50;3.00;;;;;23.44;60.01;101297.16;5118951;27;45184;-62
2022/08/19 11:01:32;;;;;;;;;2.00;2.00;;;;;23.43;59.83;101296.25;5112788;27;45260;-63
2022/08/19 11:04:00;;;;;;;;;3.00;3.00;;;;;23.41;59.75;101286.50;5120454;27;45342;-63
2022/08/19 11:06:25;;;;;;;;;1.25;1.25;;;;;23.47;59.40;101288.72;5096809;27;45357;-62
2022/08/19 11:08:51;;;;;;;;;0.75;0.75;;;;;23.46;59.84;101274.25;5121674;27;45683;-63
2022/08/19 11:11:17;;;;;;;;;1.25;1.25;;;;;23.50;59.79;101274.84;5113322;27;45480;-62
2022/08/19 11:13:45;;;;;;;;;0.00;0.00;;;;;23.52;59.97;101281.03;5120869;27;45364;-62
2022/08/19 11:16:13;;;;;;;;;1.75;1.75;;;;;23.52;60.55;101263.84;5101795;27;45506;-62
2022/08/19 11:18:42;;;;;;;;;2.25;2.00;;;;;23.56;60.00;101268.06;5121808;27;45341;-62
2022/08/19 11:21:20;;;;;;;;;1.00;1.00;;;;;23.63;60.19;101272.91;5121242;27;45315;-62
2022/08/19 11:23:52;;;;;;;;;1.00;1.00;;;;;23.65;60.44;101272.78;5102317;27;46465;-62
2022/08/19 11:26:19;;;;;;;;;2.50;1.50;;;;;23.68;60.26;101265.22;5118828;27;46410;-62
2022/08/19 11:28:45;;;;;;;;;1.00;1.00;;;;;23.70;60.19;101256.06;5112572;27;45489;-63
2022/08/19 11:31:17;;;;;;;;;1.25;1.25;;;;;23.75;60.22;101257.44;5092563;27;45493;-62
2022/08/19 11:33:43;;;;;;;;;1.25;1.00;;;;;23.79;60.14;101260.78;5117302;27;46095;-62
2022/08/19 11:36:09;;;;;;;;;1.00;1.00;;;;;23.83;60.17;101267.75;5109755;27;45689;-62
2022/08/19 11:38:35;;;;;;;;;1.00;1.00;;;;;23.84;60.03;101258.59;5104368;27;45866;-62
2022/08/19 11:41:04;;;;;;;;;1.00;1.00;;;;;23.86;59.98;101260.19;5101553;27;45440;-62
2022/08/19 11:43:30;;;;;;;;;1.25;1.25;;;;;23.84;59.74;101248.56;5113581;27;46799;-62
2022/08/19 11:45:56;;;;;;;;;1.00;1.00;;;;;23.87;59.55;101252.88;5116001;27;45551;-62